createdAt,value
2023-01-09T00:01:49.581Z,96490.56
2023-01-09T00:04:18.474Z,96484.00
2023-01-09T00:06:53.993Z,96489.84
2023-01-09T00:09:23.419Z,96489.66
2023-01-09T00:11:55.034Z,96491.41
2023-01-09T00:14:24.320Z,96474.38
2023-01-09T00:16:56.004Z,96471.88
2023-01-09T00:19:24.923Z,96471.25
2023-01-09T00:21:53.848Z,96472.13
2023-01-09T00:24:22.307Z,96467.81
2023-01-09T00:26:50.619Z,96461.94
2023-01-09T00:29:20.482Z,96460.28
2023-01-09T00:31:48.946Z,96462.78
2023-01-09T00:34:17.700Z,96460.94
2023-01-09T00:36:46.636Z,96455.03
2023-01-09T00:39:15.293Z,96439.81
2023-01-09T00:41:48.183Z,96442.69
2023-01-09T00:44:22.083Z,96447.78
2023-01-09T00:46:53.233Z,96442.69
2023-01-09T00:49:22.446Z,96453.53
2023-01-09T00:51:51.562Z,96445.84
2023-01-09T00:54:21.696Z,96429.72
2023-01-09T00:56:51.501Z,96439.91
2023-01-09T00:59:22.211Z,96434.00
2023-01-09T01:01:51.139Z,96426.31
2023-01-09T01:04:37.087Z,96423.75
2023-01-09T01:07:22.881Z,96425.56
2023-01-09T01:09:51.367Z,96423.97
2023-01-09T01:12:20.440Z,96434.81
2023-01-09T01:14:51.201Z,96416.25
2023-01-09T01:17:20.411Z,96424.66
2023-01-09T01:19:49.594Z,96422.91
2023-01-09T01:22:18.203Z,96424.66
2023-01-09T01:24:46.991Z,96423.88
2023-01-09T01:27:16.401Z,96412.81
2023-01-09T01:29:45.421Z,96417.97
2023-01-09T01:32:15.856Z,96423.06
2023-01-09T01:34:47.476Z,96440.75
2023-01-09T01:37:16.075Z,96428.00
2023-01-09T01:39:45.102Z,96417.97
2023-01-09T01:42:15.285Z,96429.78
2023-01-09T01:45:15.316Z,96407.75
2023-01-09T01:47:54.466Z,96411.97
2023-01-09T01:50:29.132Z,96413.47
2023-01-09T01:53:04.599Z,96412.72
2023-01-09T01:55:35.846Z,96417.00
2023-01-09T01:58:08.836Z,96400.34
2023-01-09T02:00:40.638Z,96406.81
2023-01-09T02:03:12.046Z,96395.72
2023-01-09T02:05:41.648Z,96389.25
2023-01-09T02:08:10.762Z,96387.69
2023-01-09T02:10:40.971Z,96383.44
2023-01-09T02:13:11.028Z,96385.06
2023-01-09T02:15:52.192Z,96388.44
2023-01-09T02:18:39.002Z,96405.84
2023-01-09T02:21:16.597Z,96384.66
2023-01-09T02:24:27.452Z,96372.75
2023-01-09T02:27:35.714Z,96364.38
2023-01-09T02:30:28.154Z,96361.94
2023-01-09T02:33:35.344Z,96369.44
2023-01-09T02:36:16.190Z,96355.97
2023-01-09T02:38:55.975Z,96356.72
2023-01-09T02:41:31.722Z,96330.63
2023-01-09T02:44:24.726Z,96341.94
2023-01-09T02:47:06.783Z,96350.41
2023-01-09T02:49:39.284Z,96321.78
2023-01-09T02:52:32.083Z,96321.00
2023-01-09T02:55:10.769Z,96313.41
2023-01-09T02:57:59.521Z,96314.88
2023-01-09T03:00:37.006Z,96308.78
2023-01-09T03:03:13.560Z,96313.94
2023-01-09T03:05:48.696Z,96330.03
2023-01-09T03:08:20.683Z,96323.13
2023-01-09T03:10:55.094Z,96307.44
2023-01-09T03:13:26.939Z,96329.78
2023-01-09T03:15:59.462Z,96330.59
2023-01-09T03:18:32.136Z,96315.50
2023-01-09T03:21:00.600Z,96314.50
2023-01-09T03:23:29.996Z,96311.94
2023-01-09T03:25:58.635Z,96295.22
2023-01-09T03:28:29.678Z,96303.59
2023-01-09T03:30:58.137Z,96302.03
2023-01-09T03:33:26.600Z,96306.94
2023-01-09T03:35:56.631Z,96318.13
2023-01-09T03:38:24.941Z,96324.00
2023-01-09T03:40:53.479Z,96299.66
2023-01-09T03:43:22.011Z,96327.38
2023-01-09T03:45:51.954Z,96338.50
2023-01-09T03:48:20.715Z,96321.78
2023-01-09T03:50:50.445Z,96328.25
2023-01-09T03:53:21.129Z,96330.06
2023-01-09T03:55:52.958Z,96343.59
2023-01-09T03:58:22.738Z,96334.59
2023-01-09T04:00:52.432Z,96350.50
2023-01-09T04:03:22.603Z,96351.97
2023-01-09T04:05:51.254Z,96345.88
2023-01-09T04:08:21.712Z,96335.78
2023-01-09T04:10:51.817Z,96340.78
2023-01-09T04:13:20.396Z,96350.97
2023-01-09T04:15:50.119Z,96354.50
2023-01-09T04:18:19.109Z,96348.34
2023-01-09T04:20:49.361Z,96359.25
2023-01-09T04:23:18.257Z,96358.34
2023-01-09T04:25:49.201Z,96360.66
2023-01-09T04:28:26.467Z,96364.72
2023-01-09T04:30:54.863Z,96372.28
2023-01-09T04:33:23.759Z,96364.72
2023-01-09T04:35:52.124Z,96367.19
2023-01-09T04:38:20.504Z,96373.28
2023-01-09T04:40:51.030Z,96372.38
2023-01-09T04:43:20.363Z,96379.13
2023-01-09T04:45:49.073Z,96362.22
2023-01-09T04:48:19.068Z,96381.50
2023-01-09T04:50:47.546Z,96387.47
2023-01-09T04:53:16.239Z,96395.97
2023-01-09T04:55:45.233Z,96393.06
2023-01-09T04:58:15.490Z,96403.00
2023-01-09T05:00:44.128Z,96393.16
2023-01-09T05:03:12.552Z,96401.16
2023-01-09T05:05:41.096Z,96410.16
2023-01-09T05:08:10.950Z,96400.97
2023-01-09T05:10:39.559Z,96406.91
2023-01-09T05:13:10.808Z,96422.09
2023-01-09T05:15:40.793Z,96421.28
2023-01-09T05:18:09.593Z,96423.25
2023-01-09T05:20:38.483Z,96424.00
2023-01-09T05:23:06.992Z,96410.72
2023-01-09T05:25:36.087Z,96434.94
2023-01-09T05:28:04.746Z,96430.91
2023-01-09T05:30:33.252Z,96445.28
2023-01-09T05:33:03.288Z,96449.41
2023-01-09T05:35:31.882Z,96440.09
2023-01-09T05:38:00.570Z,96451.94
2023-01-09T05:40:32.406Z,96451.06
2023-01-09T05:43:08.277Z,96451.13
2023-01-09T05:45:37.316Z,96462.59
2023-01-09T05:48:09.230Z,96467.59
2023-01-09T05:50:38.524Z,96474.44
2023-01-09T05:53:07.411Z,96481.13
2023-01-09T05:55:36.630Z,96484.47
2023-01-09T05:58:05.738Z,96484.38
2023-01-09T06:00:35.144Z,96463.16
2023-01-09T06:03:03.908Z,96496.63
2023-01-09T06:05:34.029Z,96490.66
2023-01-09T06:08:05.582Z,96493.78
2023-01-09T06:10:34.285Z,96492.69
2023-01-09T06:13:05.527Z,96491.03
2023-01-09T06:15:34.056Z,96498.34
2023-01-09T06:18:02.847Z,96502.44
2023-01-09T06:20:31.436Z,96505.69
2023-01-09T06:23:01.520Z,96511.34
2023-01-09T06:25:30.452Z,96505.63
2023-01-09T06:27:59.504Z,96530.50
2023-01-09T06:30:30.589Z,96529.28
2023-01-09T06:32:59.272Z,96523.16
2023-01-09T06:35:27.872Z,96544.03
2023-01-09T06:37:56.634Z,96537.28
2023-01-09T06:40:29.323Z,96544.28
2023-01-09T06:42:58.109Z,96544.19
2023-01-09T06:45:26.387Z,96544.59
2023-01-09T06:47:55.301Z,96530.66
2023-01-09T06:50:23.906Z,96541.75
2023-01-09T06:52:52.184Z,96548.78
2023-01-09T06:55:23.537Z,96553.81
2023-01-09T06:57:54.605Z,96533.88
2023-01-09T07:00:23.992Z,96564.88
2023-01-09T07:02:53.272Z,96565.03
2023-01-09T07:05:22.326Z,96586.97
2023-01-09T07:07:51.888Z,96600.41
2023-01-09T07:10:21.375Z,96581.81
2023-01-09T07:12:51.485Z,96591.63
2023-01-09T07:15:21.720Z,96592.72
2023-01-09T07:17:52.352Z,96600.78
2023-01-09T07:20:21.504Z,96603.47
2023-01-09T07:22:50.259Z,96605.16
2023-01-09T07:25:19.910Z,96594.41
2023-01-09T07:27:48.450Z,96593.25
2023-01-09T07:30:17.607Z,96588.81
2023-01-09T07:32:47.447Z,96600.47
2023-01-09T07:35:16.722Z,96603.22
2023-01-09T07:37:45.618Z,96600.94
2023-01-09T07:40:15.568Z,96606.84
2023-01-09T07:42:44.364Z,96619.50
2023-01-09T07:45:13.344Z,96633.22
2023-01-09T07:47:43.854Z,96624.81
2023-01-09T07:50:14.182Z,96635.38
2023-01-09T07:52:42.645Z,96658.34
2023-01-09T07:55:11.982Z,96651.63
2023-01-09T07:57:40.448Z,96652.47
2023-01-09T08:00:11.609Z,96645.59
2023-01-09T08:02:40.465Z,96639.72
2023-01-09T08:05:15.082Z,96652.06
2023-01-09T08:07:45.135Z,96660.56
2023-01-09T08:10:14.377Z,96662.41
2023-01-09T08:12:45.772Z,96666.78
2023-01-09T08:15:14.501Z,96670.16
2023-01-09T08:17:44.892Z,96672.53
2023-01-09T08:20:14.706Z,96673.09
2023-01-09T08:22:49.788Z,96659.28
2023-01-09T08:25:21.682Z,96676.00
2023-01-09T08:27:50.867Z,96686.19
2023-01-09T08:30:20.126Z,96689.72
2023-01-09T08:32:54.823Z,96681.16
2023-01-09T08:35:23.433Z,96696.56
2023-01-09T08:37:53.885Z,96693.31
2023-01-09T08:40:22.437Z,96700.94
2023-01-09T08:43:08.220Z,96707.97
2023-01-09T08:45:54.171Z,96711.16
2023-01-09T08:48:22.711Z,96721.50
2023-01-09T08:50:51.076Z,96724.97
2023-01-09T08:53:21.851Z,96729.66
2023-01-09T08:55:50.753Z,96733.13
2023-01-09T08:58:19.483Z,96739.81
2023-01-09T09:00:47.881Z,96739.06
2023-01-09T09:03:17.543Z,96747.72
2023-01-09T09:05:46.891Z,96734.78
2023-01-09T09:08:16.048Z,96740.88
2023-01-09T09:10:45.967Z,96725.81
2023-01-09T09:13:14.696Z,96734.44
2023-01-09T09:15:43.263Z,96743.66
2023-01-09T09:18:12.253Z,96748.63
2023-01-09T09:20:40.915Z,96717.53
2023-01-09T09:23:09.579Z,96730.66
2023-01-09T09:25:39.673Z,96739.81
2023-01-09T09:28:10.093Z,96755.59
2023-01-09T09:30:40.419Z,96738.38
2023-01-09T09:33:08.973Z,96752.72
2023-01-09T09:35:37.981Z,96745.75
2023-01-09T09:38:07.290Z,96757.28
2023-01-09T09:40:58.608Z,96751.34
2023-01-09T09:44:19.724Z,96752.91
2023-01-09T09:46:56.411Z,96744.25
2023-01-09T09:49:29.893Z,96761.56
2023-01-09T09:52:10.355Z,96756.91
2023-01-09T09:54:44.609Z,96766.38
2023-01-09T09:57:19.711Z,96746.97
2023-01-09T09:59:51.811Z,96759.75
2023-01-09T10:02:29.418Z,96756.44
2023-01-09T10:05:02.286Z,96774.50
2023-01-09T10:07:36.644Z,96769.22
2023-01-09T10:10:12.562Z,96771.63
2023-01-09T10:12:47.313Z,96760.97
2023-01-09T10:15:19.741Z,96764.41
2023-01-09T10:18:00.883Z,96764.56
2023-01-09T10:20:51.529Z,96778.16
2023-01-09T10:23:52.692Z,96765.75
2023-01-09T10:26:25.695Z,96783.38
2023-01-09T10:29:12.115Z,96779.91
2023-01-09T10:31:53.992Z,96765.88
2023-01-09T10:34:35.992Z,96749.00
2023-01-09T10:37:12.451Z,96767.19
2023-01-09T10:40:01.853Z,96754.09
2023-01-09T10:42:35.555Z,96758.22
2023-01-09T10:45:08.596Z,96758.91
2023-01-09T10:47:40.904Z,96747.78
2023-01-09T10:50:24.334Z,96759.75
2023-01-09T10:52:54.702Z,96753.28
2023-01-09T10:55:34.846Z,96753.41
2023-01-09T10:58:06.050Z,96771.25
2023-01-09T11:00:35.505Z,96741.91
2023-01-09T11:03:05.824Z,96750.44
2023-01-09T11:05:34.942Z,96749.72
2023-01-09T11:08:13.057Z,96767.25
2023-01-09T11:10:51.228Z,96759.47
2023-01-09T11:13:24.788Z,96764.97
2023-01-09T11:16:09.637Z,96763.28
2023-01-09T11:18:51.945Z,96756.44
2023-01-09T11:21:33.306Z,96766.69
2023-01-09T11:24:31.508Z,96765.94
2023-01-09T11:27:35.175Z,96778.44
2023-01-09T11:30:26.991Z,96780.56
2023-01-09T11:32:56.823Z,96767.84
2023-01-09T11:35:34.209Z,96761.91
2023-01-09T11:38:12.101Z,96750.69
2023-01-09T11:40:49.947Z,96754.19
2023-01-09T11:43:23.360Z,96751.91
2023-01-09T11:46:01.564Z,96759.28
2023-01-09T11:48:36.549Z,96753.59
2023-01-09T11:51:18.025Z,96754.28
2023-01-09T11:54:07.529Z,96749.97
2023-01-09T11:56:37.914Z,96761.66
2023-01-09T11:59:13.014Z,96757.25
2023-01-09T12:01:57.432Z,96750.94
2023-01-09T12:04:31.649Z,96746.09
2023-01-09T12:07:27.761Z,96740.88
2023-01-09T12:10:08.622Z,96742.41
2023-01-09T12:12:50.704Z,96726.28
2023-01-09T12:15:29.243Z,96747.47
2023-01-09T12:18:24.312Z,96753.38
2023-01-09T12:21:17.689Z,96751.94
2023-01-09T12:24:02.800Z,96755.19
2023-01-09T12:26:34.757Z,96757.06
2023-01-09T12:29:34.949Z,96755.81
2023-01-09T12:32:31.197Z,96766.88
2023-01-09T12:35:08.661Z,96762.75
2023-01-09T12:37:58.784Z,96783.03
2023-01-09T12:40:44.851Z,96767.84
2023-01-09T12:43:24.569Z,96778.63
2023-01-09T12:46:04.557Z,96780.44
2023-01-09T12:49:01.046Z,96777.75
2023-01-09T12:51:35.080Z,96786.84
2023-01-09T12:54:10.821Z,96783.50
2023-01-09T12:56:45.892Z,96794.06
2023-01-09T12:59:30.346Z,96782.03
2023-01-09T13:02:08.111Z,96778.56
2023-01-09T13:04:42.567Z,96779.53
2023-01-09T13:07:20.098Z,96772.97
2023-01-09T13:09:53.805Z,96783.09
2023-01-09T13:12:26.925Z,96785.03
2023-01-09T13:15:01.108Z,96785.56
2023-01-09T13:17:35.177Z,96775.19
2023-01-09T13:20:03.354Z,96792.91
2023-01-09T13:22:31.952Z,96791.00
2023-01-09T13:25:17.969Z,96782.72
2023-01-09T13:27:57.637Z,96779.44
2023-01-09T13:30:41.388Z,96777.75
2023-01-09T13:33:20.249Z,96767.16
2023-01-09T13:35:55.629Z,96773.00
2023-01-09T13:38:26.570Z,96778.69
2023-01-09T13:41:29.081Z,96787.91
2023-01-09T13:44:02.168Z,96787.88
2023-01-09T13:46:38.143Z,96793.72
2023-01-09T13:49:08.612Z,96778.47
2023-01-09T13:51:53.225Z,96775.81
2023-01-09T13:54:55.007Z,96787.78
2023-01-09T13:57:30.556Z,96797.94
2023-01-09T14:00:44.594Z,96802.16
2023-01-09T14:03:20.729Z,96795.25
2023-01-09T14:06:14.814Z,96792.81
2023-01-09T14:08:45.310Z,96792.81
2023-01-09T14:11:22.858Z,96789.63
2023-01-09T14:14:09.442Z,96785.69
2023-01-09T14:16:39.978Z,96792.00
2023-01-09T14:19:23.393Z,96812.38
2023-01-09T14:21:56.301Z,96819.88
2023-01-09T14:24:31.651Z,96808.69
2023-01-09T14:27:02.258Z,96815.50
2023-01-09T14:29:49.276Z,96811.34
2023-01-09T14:32:54.624Z,96807.06
2023-01-09T14:35:35.701Z,96801.75
2023-01-09T14:38:15.403Z,96816.59
2023-01-09T14:40:51.152Z,96809.91
2023-01-09T14:43:28.472Z,96813.13
2023-01-09T14:46:07.194Z,96812.25
2023-01-09T14:48:38.237Z,96818.00
2023-01-09T14:51:25.333Z,96815.56
2023-01-09T14:53:56.088Z,96828.19
2023-01-09T14:56:30.539Z,96829.09
2023-01-09T14:59:14.319Z,96822.69
2023-01-09T15:01:45.843Z,96828.63
2023-01-09T15:04:31.767Z,96835.38
2023-01-09T15:07:02.178Z,96846.16
2023-01-09T15:09:36.134Z,96854.28
2023-01-09T15:12:09.865Z,96884.44
2023-01-09T15:14:47.457Z,96882.03
2023-01-09T15:17:22.537Z,96900.94
2023-01-09T15:19:51.489Z,96915.16
2023-01-09T15:22:30.780Z,96929.31
2023-01-09T15:25:00.036Z,96931.56
2023-01-09T15:27:30.068Z,96911.44
2023-01-09T15:30:16.238Z,96911.56
2023-01-09T15:32:48.064Z,96912.66
2023-01-09T15:35:17.437Z,96919.50
2023-01-09T15:37:48.165Z,96935.84
2023-01-09T15:40:25.269Z,96920.81
2023-01-09T15:42:57.817Z,96929.38
2023-01-09T15:45:29.581Z,96924.34
2023-01-09T15:48:16.776Z,96930.06
2023-01-09T15:50:46.282Z,96931.28
2023-01-09T15:53:20.227Z,96943.91
2023-01-09T15:56:03.245Z,96954.97
2023-01-09T15:58:35.933Z,96945.09
2023-01-09T16:01:06.811Z,96957.84
2023-01-09T16:03:39.654Z,96971.22
2023-01-09T16:06:10.626Z,96967.84
2023-01-09T16:08:43.828Z,96972.94
2023-01-09T16:11:26.200Z,96961.09
2023-01-09T16:13:56.942Z,96976.28
2023-01-09T16:16:29.642Z,96978.75
2023-01-09T16:19:03.126Z,96983.63
2023-01-09T16:21:34.976Z,96986.13
2023-01-09T16:24:26.023Z,96971.63
2023-01-09T16:27:12.995Z,96974.94
2023-01-09T16:29:50.092Z,96972.28
2023-01-09T16:32:21.941Z,96982.41
2023-01-09T16:34:54.602Z,96978.28
2023-01-09T16:37:24.023Z,96973.97
2023-01-09T16:40:24.837Z,96982.47
2023-01-09T16:43:01.885Z,96986.66
2023-01-09T16:45:33.136Z,96969.97
2023-01-09T16:48:02.192Z,96983.41
2023-01-09T16:50:31.382Z,96977.75
2023-01-09T16:53:03.536Z,96989.56
2023-01-09T16:55:32.992Z,96990.66
2023-01-09T16:58:02.948Z,96994.97
2023-01-09T17:00:32.278Z,96994.25
2023-01-09T17:03:01.175Z,96999.34
2023-01-09T17:05:29.733Z,96997.81
2023-01-09T17:07:58.624Z,96999.47
2023-01-09T17:10:27.397Z,97014.75
2023-01-09T17:12:57.386Z,97023.22
2023-01-09T17:15:49.869Z,97024.94
2023-01-09T17:18:20.297Z,97030.94
2023-01-09T17:20:51.365Z,97027.63
2023-01-09T17:23:22.614Z,97023.50
2023-01-09T17:26:13.314Z,97022.75
2023-01-09T17:28:45.219Z,97030.34
2023-01-09T17:31:16.750Z,97035.41
2023-01-09T17:33:45.610Z,97029.38
2023-01-09T17:36:23.992Z,97034.56
2023-01-09T17:38:55.160Z,97047.38
2023-01-09T17:41:24.850Z,97044.03
2023-01-09T17:43:53.984Z,97046.63
2023-01-09T17:46:29.093Z,97050.19
2023-01-09T17:48:58.726Z,97056.81
2023-01-09T17:51:28.133Z,97055.97
2023-01-09T17:53:57.012Z,97048.47
2023-01-09T17:56:27.470Z,97050.16
2023-01-09T17:58:57.005Z,97046.81
2023-01-09T18:01:27.788Z,97040.19
2023-01-09T18:03:56.013Z,97064.56
2023-01-09T18:06:25.152Z,97064.56
2023-01-09T18:08:54.840Z,97063.66
2023-01-09T18:11:25.913Z,97072.09
2023-01-09T18:13:55.396Z,97078.00
2023-01-09T18:16:25.634Z,97078.91
2023-01-09T18:18:58.476Z,97088.06
2023-01-09T18:21:28.603Z,97097.22
2023-01-09T18:23:57.961Z,97106.44
2023-01-09T18:26:27.934Z,97110.66
2023-01-09T18:28:58.153Z,97116.59
2023-01-09T18:31:28.435Z,97116.63
2023-01-09T18:34:02.659Z,97127.56
2023-01-09T18:36:31.850Z,97129.25
2023-01-09T18:39:02.330Z,97141.91
2023-01-09T18:41:31.371Z,97141.84
2023-01-09T18:44:01.350Z,97140.88
2023-01-09T18:46:32.714Z,97138.09
2023-01-09T18:49:06.086Z,97144.81
2023-01-09T18:51:36.363Z,97160.97
2023-01-09T18:54:08.115Z,97166.94
2023-01-09T18:56:37.286Z,97148.28
2023-01-09T18:59:07.045Z,97150.13
2023-01-09T19:01:38.188Z,97161.84
2023-01-09T19:04:08.788Z,97157.78
2023-01-09T19:06:38.298Z,97124.22
2023-01-09T19:09:06.809Z,97174.81
2023-01-09T19:11:35.762Z,97169.59
2023-01-09T19:14:04.162Z,97170.47
2023-01-09T19:16:33.080Z,97159.59
2023-01-09T19:19:02.912Z,97162.91
2023-01-09T19:21:33.133Z,97174.75
2023-01-09T19:24:01.987Z,97179.84
2023-01-09T19:26:31.546Z,97184.13
2023-01-09T19:29:01.315Z,97169.97
2023-01-09T19:31:30.452Z,97173.31
2023-01-09T19:33:59.842Z,97186.78
2023-01-09T19:36:30.389Z,97181.69
2023-01-09T19:39:02.132Z,97185.25
2023-01-09T19:41:31.850Z,97193.50
2023-01-09T19:44:02.144Z,97185.16
2023-01-09T19:46:33.629Z,97177.44
2023-01-09T19:49:04.917Z,97174.25
2023-01-09T19:51:34.814Z,97186.88
2023-01-09T19:56:35.838Z,97207.31
2023-01-09T19:59:05.996Z,97210.84
2023-01-09T20:01:36.351Z,97215.19
2023-01-09T20:04:08.208Z,97214.38
2023-01-09T20:06:39.962Z,97207.59
2023-01-09T20:09:13.581Z,97223.50
2023-01-09T20:11:44.931Z,97226.09
2023-01-09T20:14:15.422Z,97226.03
2023-01-09T20:16:45.669Z,97227.94
2023-01-09T20:19:16.422Z,97248.22
2023-01-09T20:21:45.330Z,97241.38
2023-01-09T20:24:18.469Z,97241.53
2023-01-09T20:26:47.471Z,97244.88
2023-01-09T20:29:17.304Z,97253.41
2023-01-09T20:31:46.079Z,97249.25
2023-01-09T20:34:16.419Z,97253.53
2023-01-09T20:36:45.433Z,97260.19
2023-01-09T20:39:16.140Z,97258.41
2023-01-09T20:41:44.596Z,97265.19
2023-01-09T20:44:18.453Z,97260.00
2023-01-09T20:46:48.350Z,97253.03
2023-01-09T20:49:19.985Z,97278.25
2023-01-09T20:51:50.548Z,97257.84
2023-01-09T20:54:22.642Z,97267.91
2023-01-09T20:56:51.504Z,97264.47
2023-01-09T20:59:22.515Z,97271.28
2023-01-09T21:01:51.976Z,97264.47
2023-01-09T21:04:23.483Z,97271.13
2023-01-09T21:06:52.622Z,97271.88
2023-01-09T21:09:25.425Z,97276.91
2023-01-09T21:11:55.654Z,97278.56
2023-01-09T21:14:25.025Z,97284.50
2023-01-09T21:16:55.163Z,97285.34
2023-01-09T21:19:24.785Z,97279.41
2023-01-09T21:21:53.793Z,97306.38
2023-01-09T21:24:24.416Z,97303.03
2023-01-09T21:26:53.199Z,97309.84
2023-01-09T21:29:22.639Z,97310.56
2023-01-09T21:31:51.155Z,97313.09
2023-01-09T21:34:21.817Z,97313.97
2023-01-09T21:36:51.195Z,97315.50
2023-01-09T21:39:22.604Z,97319.88
2023-01-09T21:42:09.804Z,97331.78
2023-01-09T21:44:55.473Z,97322.47
2023-01-09T21:47:24.257Z,97336.94
2023-01-09T21:49:53.394Z,97343.75
2023-01-09T21:52:22.169Z,97352.28
2023-01-09T21:54:50.966Z,97350.63
2023-01-09T21:57:21.289Z,97364.19
2023-01-09T21:59:50.079Z,97364.25
2023-01-09T22:02:18.384Z,97383.66
2023-01-09T22:04:49.199Z,97380.22
2023-01-09T22:07:18.382Z,97378.59
2023-01-09T22:09:47.698Z,97392.16
2023-01-09T22:12:17.001Z,97393.09
2023-01-09T22:14:47.568Z,97396.50
2023-01-09T22:17:15.905Z,97410.13
2023-01-09T22:19:44.505Z,97419.47
2023-01-09T22:22:13.125Z,97416.13
2023-01-09T22:24:41.924Z,97429.75
2023-01-09T22:27:10.805Z,97416.28
2023-01-09T22:29:39.158Z,97418.81
2023-01-09T22:32:09.102Z,97429.03
2023-01-09T22:34:37.687Z,97430.66
2023-01-09T22:37:06.384Z,97444.16
2023-01-09T22:39:35.052Z,97432.41
2023-01-09T22:42:03.964Z,97444.97
2023-01-09T22:44:32.630Z,97442.44
2023-01-09T22:47:00.932Z,97453.44
2023-01-09T22:49:37.295Z,97469.56
2023-01-09T22:52:19.776Z,97478.03
2023-01-09T22:54:48.404Z,97465.31
2023-01-09T22:57:17.266Z,97467.06
2023-01-09T22:59:45.860Z,97461.97
2023-01-09T23:02:14.505Z,97470.50
2023-01-09T23:04:44.559Z,97459.50
2023-01-09T23:07:13.469Z,97477.28
2023-01-09T23:09:42.351Z,97475.59
2023-01-09T23:12:11.368Z,97481.56
2023-01-09T23:14:40.986Z,97484.97
2023-01-09T23:17:12.639Z,97491.66
2023-01-09T23:19:41.057Z,97501.94
2023-01-09T23:22:10.853Z,97506.16
2023-01-09T23:24:39.754Z,97497.78
2023-01-09T23:27:08.138Z,97517.22
2023-01-09T23:29:39.822Z,97497.75
2023-01-09T23:32:09.427Z,97512.09
2023-01-09T23:34:38.613Z,97519.72
2023-01-09T23:37:09.992Z,97522.34
2023-01-09T23:39:40.071Z,97517.25
2023-01-09T23:42:25.862Z,97520.59
2023-01-09T23:44:54.539Z,97534.13
2023-01-09T23:47:23.258Z,97524.00
2023-01-09T23:49:51.704Z,97531.69
2023-01-09T23:52:20.411Z,97538.50
2023-01-09T23:54:50.922Z,97551.22
2023-01-09T23:57:19.671Z,97550.38
2023-01-09T23:59:48.123Z,97561.47
